Time;durP1;ratioP1;P1;durP2;ratioP2;P2;SDS_P1;SDS_P2;PMS_P1;PMS_P2;Temp;Humidity;BMP_temperature;BMP_pressure;BME280_temperature;BME280_humidity;BME280_pressure;Samples;Min_cycle;Max_cycle;Signal;HPM_P1;HPM_P2
2022/09/14 00:00:00;;;;;;;5.38;1.17;;;13.30;99.90;;;;;;4948289;29;20456;-85
2022/09/14 00:02:26;;;;;;;6.53;1.35;;;13.30;99.90;;;;;;4916317;29;20130;-85
2022/09/14 00:04:51;;;;;;;8.05;1.35;;;13.30;99.90;;;;;;4929071;29;20094;-86
2022/09/14 00:07:17;;;;;;;8.15;1.80;;;13.30;99.90;;;;;;4911778;29;20044;-85
2022/09/14 00:09:43;;;;;;;6.00;1.33;;;13.30;99.90;;;;;;4913303;29;20212;-85
2022/09/14 00:12:09;;;;;;;10.70;1.45;;;13.30;99.90;;;;;;4928839;29;20480;-86
2022/09/14 00:14:36;;;;;;;8.98;1.50;;;13.40;99.90;;;;;;4912469;29;20484;-85
2022/09/14 00:17:02;;;;;;;6.15;1.67;;;13.40;99.90;;;;;;4913105;29;20127;-86
2022/09/14 00:19:27;;;;;;;6.35;1.00;;;13.40;99.90;;;;;;4929326;29;20559;-85
2022/09/14 00:21:57;;;;;;;10.90;1.60;;;13.40;99.90;;;;;;4927269;29;20488;-86
2022/09/14 00:24:25;;;;;;;7.82;1.20;;;13.40;99.90;;;;;;4928426;29;20495;-86
2022/09/14 00:26:51;;;;;;;9.60;1.42;;;13.40;99.90;;;;;;4912784;29;20584;-85
2022/09/14 00:29:17;;;;;;;10.45;1.60;;;13.30;99.90;;;;;;4896602;29;20118;-85
2022/09/14 00:31:44;;;;;;;6.47;1.70;;;13.30;99.90;;;;;;4928850;29;20047;-85
2022/09/14 00:34:12;;;;;;;6.28;1.15;;;13.30;99.90;;;;;;4927637;29;20121;-85
2022/09/14 00:36:42;;;;;;;8.10;1.50;;;13.30;99.90;;;;;;4897839;29;20468;-85
2022/09/14 00:39:08;;;;;;;5.35;1.02;;;13.30;99.90;;;;;;4931585;29;20054;-85
2022/09/14 00:41:37;;;;;;;6.80;1.38;;;13.30;99.90;;;;;;4931052;29;20071;-84
2022/09/14 00:44:25;;;;;;;5.55;1.35;;;13.30;99.90;;;;;;4931581;29;20495;-85
2022/09/14 00:46:55;;;;;;;10.23;1.27;;;13.30;99.90;;;;;;4916208;29;20043;-85
2022/09/14 00:49:28;;;;;;;9.38;1.80;;;13.30;99.90;;;;;;4930474;29;20043;-85
2022/09/14 00:52:07;;;;;;;5.20;1.10;;;13.30;99.90;;;;;;4931421;29;20142;-85
2022/09/14 00:54:39;;;;;;;8.25;1.35;;;13.40;99.90;;;;;;4932008;29;20047;-85
2022/09/14 00:57:05;;;;;;;6.28;1.23;;;13.40;99.90;;;;;;4946541;29;20522;-85
2022/09/14 00:59:35;;;;;;;5.90;1.20;;;13.40;99.90;;;;;;4947682;29;20035;-85
2022/09/14 01:02:01;;;;;;;8.80;1.30;;;13.40;99.90;;;;;;4947323;29;20093;-85
2022/09/14 01:04:27;;;;;;;9.80;1.40;;;13.50;99.90;;;;;;4930565;29;20570;-85
2022/09/14 01:07:05;;;;;;;7.93;1.45;;;13.50;99.90;;;;;;4946990;29;20046;-85
2022/09/14 01:09:43;;;;;;;4.13;1.20;;;13.50;99.90;;;;;;4946614;29;20051;-86
2022/09/14 01:12:33;;;;;;;8.20;1.42;;;13.40;99.90;;;;;;4938702;28;20101;-86
2022/09/14 01:15:24;;;;;;;4.22;1.30;;;13.40;99.90;;;;;;4928430;29;20055;-84
2022/09/14 01:18:06;;;;;;;7.72;1.30;;;13.40;99.90;;;;;;4911857;29;20050;-85
2022/09/14 01:20:46;;;;;;;9.97;1.40;;;13.50;99.90;;;;;;4896466;29;20083;-85
2022/09/14 01:23:32;;;;;;;8.40;1.50;;;13.50;99.90;;;;;;4911369;29;20280;-85
2022/09/14 01:26:19;;;;;;;26.08;2.50;;;13.50;99.90;;;;;;4928573;29;20048;-85
2022/09/14 01:28:57;;;;;;;10.13;1.50;;;13.60;99.90;;;;;;4913438;29;20047;-85
2022/09/14 01:31:33;;;;;;;5.18;1.20;;;13.60;99.90;;;;;;4931942;29;20146;-85
2022/09/14 01:34:04;;;;;;;5.80;1.35;;;13.70;99.90;;;;;;4916477;29;20039;-85
2022/09/14 01:36:33;;;;;;;7.82;1.15;;;13.70;99.90;;;;;;4932789;29;20055;-85
2022/09/14 01:39:00;;;;;;;9.82;1.55;;;13.80;99.90;;;;;;4915588;29;20047;-85
2022/09/14 01:41:30;;;;;;;5.60;1.15;;;13.80;99.90;;;;;;4915529;29;20346;-85
2022/09/14 01:44:11;;;;;;;9.10;1.20;;;13.90;99.90;;;;;;4915330;29;20043;-84
2022/09/14 01:46:43;;;;;;;9.40;1.45;;;13.90;99.90;;;;;;4915156;29;20043;-85
2022/09/14 01:49:17;;;;;;;11.35;1.58;;;13.90;99.90;;;;;;4915919;29;20517;-85
2022/09/14 01:51:49;;;;;;;8.25;1.35;;;14.00;99.90;;;;;;4914346;29;20518;-85
2022/09/14 01:54:24;;;;;;;8.70;1.40;;;14.00;99.90;;;;;;4931152;29;20134;-85
2022/09/14 01:56:57;;;;;;;6.93;1.60;;;14.00;99.90;;;;;;4899730;29;20056;-85
2022/09/14 01:59:26;;;;;;;13.02;1.90;;;14.00;99.90;;;;;;4915003;29;20531;-85
2022/09/14 02:02:06;;;;;;;7.93;1.83;;;14.00;99.90;;;;;;4915185;29;20054;-85
2022/09/14 02:04:51;;;;;;;11.77;1.75;;;14.00;99.90;;;;;;4915530;29;20173;-85
2022/09/14 02:07:18;;;;;;;7.65;1.35;;;14.00;99.90;;;;;;4914021;29;20043;-85
2022/09/14 02:09:46;;;;;;;4.68;0.90;;;14.00;99.90;;;;;;4915328;29;20071;-85
2022/09/14 02:12:11;;;;;;;9.63;1.30;;;14.00;99.90;;;;;;4914911;29;20122;-86
2022/09/14 02:14:37;;;;;;;12.77;1.80;;;14.10;99.90;;;;;;4899130;29;20559;-84
2022/09/14 02:17:03;;;;;;;9.55;1.80;;;14.10;99.90;;;;;;4930646;29;20039;-85
2022/09/14 02:19:34;;;;;;;7.35;1.15;;;14.10;99.90;;;;;;4915108;29;20052;-86
2022/09/14 02:22:00;;;;;;;7.53;1.40;;;14.10;99.90;;;;;;4914568;29;20059;-86
2022/09/14 02:24:27;;;;;;;5.38;1.20;;;14.10;99.90;;;;;;4914889;29;20058;-84
2022/09/14 02:26:54;;;;;;;7.30;1.60;;;14.20;99.90;;;;;;4898624;29;20048;-86
2022/09/14 02:29:19;;;;;;;4.25;1.02;;;14.20;99.90;;;;;;4914713;29;20353;-85
2022/09/14 02:31:55;;;;;;;6.35;1.42;;;14.20;99.90;;;;;;4914835;29;20083;-85
2022/09/14 02:34:35;;;;;;;5.68;1.35;;;14.20;99.90;;;;;;4929733;29;20047;-85
2022/09/14 02:37:09;;;;;;;8.93;1.20;;;14.20;99.90;;;;;;4914111;29;20051;-85
2022/09/14 02:39:58;;;;;;;4.40;1.20;;;14.20;99.90;;;;;;4915040;29;20488;-85
2022/09/14 02:42:38;;;;;;;11.40;1.83;;;14.20;99.90;;;;;;4929314;29;20063;-85
2022/09/14 02:45:19;;;;;;;9.10;1.30;;;14.20;99.90;;;;;;4930210;29;20334;-85
2022/09/14 02:48:00;;;;;;;11.68;1.45;;;14.20;99.90;;;;;;4929178;29;20047;-84
2022/09/14 02:50:32;;;;;;;6.65;1.63;;;14.20;99.90;;;;;;4930042;29;20480;-85
2022/09/14 02:53:12;;;;;;;4.25;1.20;;;14.20;99.90;;;;;;4929767;29;20075;-85
2022/09/14 02:55:45;;;;;;;10.90;1.95;;;14.20;99.90;;;;;;4914216;29;20055;-85
2022/09/14 02:58:12;;;;;;;7.25;1.48;;;14.20;99.90;;;;;;4914043;29;20094;-85
2022/09/14 03:00:41;;;;;;;9.90;1.73;;;14.20;99.90;;;;;;4914657;29;20047;-84
2022/09/14 03:03:09;;;;;;;9.35;1.40;;;14.20;99.90;;;;;;4913447;29;20127;-85
2022/09/14 03:05:36;;;;;;;4.43;1.40;;;14.20;99.90;;;;;;4930697;29;20047;-85
2022/09/14 03:08:02;;;;;;;11.18;1.50;;;14.20;99.90;;;;;;4929382;29;20039;-85
2022/09/14 03:10:30;;;;;;;5.93;1.25;;;14.20;99.90;;;;;;4929719;29;20465;-85
2022/09/14 03:12:56;;;;;;;6.90;1.60;;;14.20;99.90;;;;;;4914222;29;20055;-84
2022/09/14 03:15:22;;;;;;;4.30;1.33;;;14.20;99.90;;;;;;4898345;29;20043;-85
2022/09/14 03:17:48;;;;;;;7.13;1.58;;;14.20;99.90;;;;;;4929005;29;20130;-85
2022/09/14 03:20:18;;;;;;;8.60;1.45;;;14.20;99.90;;;;;;4929645;29;20190;-84
2022/09/14 03:22:44;;;;;;;7.32;1.88;;;14.20;99.90;;;;;;4929215;29;20070;-85
2022/09/14 03:25:10;;;;;;;8.23;1.90;;;14.20;99.90;;;;;;4913157;29;20048;-85
2022/09/14 03:27:36;;;;;;;9.32;2.00;;;14.20;99.90;;;;;;4898381;29;20196;-85
2022/09/14 03:30:04;;;;;;;11.38;2.28;;;14.20;99.90;;;;;;4913013;29;20079;-85
2022/09/14 03:32:29;;;;;;;11.85;1.90;;;14.20;99.90;;;;;;4929897;29;20114;-85
2022/09/14 03:34:56;;;;;;;9.75;2.38;;;14.20;99.90;;;;;;4898485;29;20051;-84
2022/09/14 03:37:22;;;;;;;8.40;1.90;;;14.20;99.90;;;;;;4911904;29;20048;-84
2022/09/14 03:39:48;;;;;;;9.18;3.25;;;14.20;99.90;;;;;;4913857;29;20099;-85
2022/09/14 03:42:14;;;;;;;9.52;2.10;;;14.20;99.90;;;;;;4926088;29;20060;-84
2022/09/14 03:44:39;;;;;;;11.60;2.17;;;14.30;99.90;;;;;;4910138;29;20139;-85
2022/09/14 03:47:05;;;;;;;9.15;2.20;;;14.30;99.90;;;;;;4911560;29;20048;-85
2022/09/14 03:49:31;;;;;;;10.07;1.65;;;14.30;99.90;;;;;;4911062;29;20052;-85
2022/09/14 03:51:56;;;;;;;9.98;1.80;;;14.30;99.90;;;;;;4908918;29;20847;-84
2022/09/14 03:54:22;;;;;;;8.15;2.25;;;14.20;99.90;;;;;;4910425;29;20090;-84
2022/09/14 03:56:50;;;;;;;6.35;1.80;;;14.30;99.90;;;;;;4910434;29;20107;-85
2022/09/14 03:59:16;;;;;;;10.80;2.03;;;14.20;99.90;;;;;;4925395;29;20369;-84
2022/09/14 04:01:42;;;;;;;9.48;1.77;;;14.20;99.90;;;;;;4928489;29;20304;-85
2022/09/14 04:04:07;;;;;;;7.55;2.10;;;14.20;99.90;;;;;;4913639;29;20056;-85
2022/09/14 04:06:33;;;;;;;12.52;2.20;;;14.20;99.90;;;;;;4912434;29;20094;-85
2022/09/14 04:08:59;;;;;;;12.32;2.20;;;14.20;99.90;;;;;;4912960;29;20047;-85
2022/09/14 04:11:25;;;;;;;8.18;1.88;;;14.20;99.90;;;;;;4913706;29;20185;-85
2022/09/14 04:13:52;;;;;;;6.93;2.05;;;14.20;99.90;;;;;;4943609;29;20134;-85
2022/09/14 04:16:21;;;;;;;9.50;2.00;;;14.20;99.90;;;;;;4929463;29;20055;-85
2022/09/14 04:18:47;;;;;;;9.65;2.08;;;14.20;99.90;;;;;;4912501;29;20052;-85
2022/09/14 04:21:16;;;;;;;8.02;2.45;;;14.20;99.90;;;;;;4911681;29;20059;-85
2022/09/14 04:23:42;;;;;;;5.57;1.83;;;14.20;99.90;;;;;;4926014;29;20487;-85
2022/09/14 04:26:13;;;;;;;10.80;2.05;;;14.20;99.90;;;;;;4927642;29;20083;-86
2022/09/14 04:28:39;;;;;;;7.28;2.28;;;14.20;99.90;;;;;;4912551;29;20134;-85
2022/09/14 04:31:05;;;;;;;11.88;1.85;;;14.20;99.90;;;;;;4913086;29;20134;-84
2022/09/14 04:33:33;;;;;;;6.50;1.90;;;14.20;99.90;;;;;;4912375;29;20601;-85
2022/09/14 04:36:04;;;;;;;8.77;2.30;;;14.20;99.90;;;;;;4912953;29;20085;-85
2022/09/14 04:38:30;;;;;;;13.27;2.10;;;14.20;99.90;;;;;;4911874;29;20052;-84
2022/09/14 04:40:57;;;;;;;8.30;2.20;;;14.20;99.90;;;;;;4913242;29;20099;-84
2022/09/14 04:43:24;;;;;;;13.23;3.05;;;14.20;99.90;;;;;;4916133;29;20079;-84
2022/09/14 04:45:52;;;;;;;10.00;2.47;;;14.20;99.90;;;;;;4932624;29;20063;-85
2022/09/14 04:48:19;;;;;;;7.80;2.05;;;14.20;99.90;;;;;;4915430;29;20406;-85
2022/09/14 04:50:45;;;;;;;10.68;2.25;;;14.20;99.90;;;;;;4915642;29;20047;-84
2022/09/14 04:53:11;;;;;;;13.60;2.25;;;14.30;99.90;;;;;;4915260;29;20050;-85
2022/09/14 04:55:36;;;;;;;13.35;2.42;;;14.30;99.90;;;;;;4931300;29;20082;-85
2022/09/14 04:58:03;;;;;;;3.65;1.70;;;14.30;99.90;;;;;;4932074;29;20093;-84
2022/09/14 05:00:29;;;;;;;10.45;2.30;;;14.20;99.90;;;;;;4932588;29;20051;-84
2022/09/14 05:02:54;;;;;;;7.75;2.10;;;14.20;99.90;;;;;;4915134;29;20047;-85
2022/09/14 05:05:20;;;;;;;9.80;2.20;;;14.30;99.90;;;;;;4934976;29;20046;-85
2022/09/14 05:07:46;;;;;;;9.82;2.20;;;14.30;99.90;;;;;;4934387;29;20043;-85
2022/09/14 05:10:11;;;;;;;7.07;1.90;;;14.20;99.90;;;;;;4934737;29;20043;-85
2022/09/14 05:12:37;;;;;;;8.65;2.55;;;14.30;99.90;;;;;;4935803;29;20130;-85
2022/09/14 05:15:03;;;;;;;12.20;2.40;;;14.30;99.90;;;;;;4948023;29;20102;-84
2022/09/14 05:17:33;;;;;;;12.02;2.60;;;14.30;99.90;;;;;;4940043;29;20090;-84
2022/09/14 05:19:59;;;;;;;8.75;2.10;;;14.30;99.90;;;;;;4926216;29;20414;-84
2022/09/14 05:22:25;;;;;;;7.20;2.35;;;14.30;99.90;;;;;;4908317;29;20491;-85
2022/09/14 05:24:50;;;;;;;17.75;2.53;;;14.30;99.90;;;;;;4924804;29;20071;-85
2022/09/14 05:27:16;;;;;;;11.00;2.00;;;14.30;99.90;;;;;;4925896;29;20039;-85
2022/09/14 05:29:42;;;;;;;11.50;2.20;;;14.30;99.90;;;;;;4923828;29;20047;-85
2022/09/14 05:32:07;;;;;;;9.82;1.85;;;14.30;99.90;;;;;;4940294;29;20464;-84
2022/09/14 05:34:33;;;;;;;8.88;1.90;;;14.20;99.90;;;;;;4926413;29;20098;-85
2022/09/14 05:36:59;;;;;;;6.95;2.03;;;14.20;99.90;;;;;;4924445;29;20053;-84
2022/09/14 05:39:25;;;;;;;5.50;2.10;;;14.20;99.90;;;;;;4925010;29;20440;-84
2022/09/14 05:41:51;;;;;;;10.68;2.17;;;14.20;99.90;;;;;;4925417;29;20055;-84
2022/09/14 05:44:17;;;;;;;7.75;1.83;;;14.20;99.90;;;;;;4922605;29;20512;-85
2022/09/14 05:46:42;;;;;;;5.60;1.75;;;14.30;99.90;;;;;;4925577;29;20085;-85
2022/09/14 05:49:08;;;;;;;12.02;2.10;;;14.30;99.90;;;;;;4909131;29;20403;-84
2022/09/14 05:51:34;;;;;;;10.07;1.77;;;14.30;99.90;;;;;;4922685;29;20985;-85
2022/09/14 05:54:00;;;;;;;8.98;1.98;;;14.40;99.90;;;;;;4928044;29;20414;-85
2022/09/14 05:56:28;;;;;;;7.95;1.55;;;14.40;99.90;;;;;;4908489;29;20063;-85
2022/09/14 05:58:54;;;;;;;6.05;1.60;;;14.40;99.90;;;;;;4925462;29;20040;-84
2022/09/14 06:01:22;;;;;;;6.35;1.50;;;14.40;99.90;;;;;;4912170;29;20411;-85
2022/09/14 06:03:49;;;;;;;6.55;1.60;;;14.50;99.90;;;;;;4940417;29;20092;-84
2022/09/14 06:06:17;;;;;;;6.18;1.60;;;14.50;99.90;;;;;;4922806;29;20420;-84
2022/09/14 06:08:43;;;;;;;9.27;1.63;;;14.50;99.90;;;;;;4924439;29;20047;-84
2022/09/14 06:11:18;;;;;;;6.15;1.67;;;14.60;99.90;;;;;;4940696;29;20047;-85
2022/09/14 06:13:45;;;;;;;6.43;1.70;;;14.60;99.90;;;;;;4924683;29;20043;-85
2022/09/14 06:16:13;;;;;;;5.32;1.42;;;14.60;99.90;;;;;;4908573;29;20062;-85
2022/09/14 06:18:40;;;;;;;10.65;1.95;;;14.70;99.90;;;;;;4907136;29;20147;-84
2022/09/14 06:21:08;;;;;;;9.13;1.67;;;14.80;99.90;;;;;;4923911;29;20047;-86
2022/09/14 06:26:19;;;;;;;6.88;1.90;;;14.90;99.90;;;;;;4994673;23;20060;-90
2022/09/14 06:29:16;;;;;;;;;;;;;;;;;;;;;
2022/09/14 06:31:57;;;;;;;16.90;2.08;;;15.20;99.90;;;;;;4936103;29;20063;-92
2022/09/14 06:34:29;;;;;;;11.00;1.60;;;15.10;99.90;;;;;;4908968;29;20055;-92
2022/09/14 06:37:18;;;;;;;9.55;2.08;;;15.10;99.90;;;;;;4929465;29;20094;-92
2022/09/14 06:39:44;;;;;;;10.55;2.28;;;15.20;99.90;;;;;;4911014;29;20058;-93
2022/09/14 06:42:13;;;;;;;15.60;2.08;;;15.20;99.90;;;;;;4910321;29;20508;-93
2022/09/14 06:45:11;;;;;;;7.22;1.45;;;15.30;99.90;;;;;;4928720;29;20136;-94
2022/09/14 06:47:40;;;;;;;6.57;1.30;;;15.30;99.90;;;;;;4927421;29;20051;-93
2022/09/14 06:50:09;;;;;;;10.77;1.65;;;15.40;99.90;;;;;;4908673;29;20507;-95
2022/09/14 06:52:39;;;;;;;9.25;1.33;;;15.50;99.90;;;;;;4911195;29;20043;-92
2022/09/14 06:55:44;;;;;;;;;;;;;;;;;;;;;
2022/09/14 07:04:17;;;;;;;6.10;0.93;;;15.70;99.90;;;;;;4929438;29;20056;-94
2022/09/14 07:06:46;;;;;;;6.60;1.30;;;15.70;99.90;;;;;;4938177;29;20051;-93
2022/09/14 07:09:12;;;;;;;13.10;1.70;;;15.80;99.90;;;;;;4927443;29;20048;-93
2022/09/14 07:11:39;;;;;;;10.27;1.17;;;15.90;99.90;;;;;;4904764;29;20058;-94
2022/09/14 07:14:05;;;;;;;10.38;1.08;;;15.90;99.90;;;;;;4920110;29;20568;-93
2022/09/14 07:16:33;;;;;;;7.60;1.30;;;16.00;99.90;;;;;;4918748;29;20139;-93
2022/09/14 07:19:01;;;;;;;13.05;1.33;;;16.00;99.90;;;;;;4887489;29;20494;-95
2022/09/14 07:21:28;;;;;;;15.38;1.27;;;16.10;99.90;;;;;;4882323;29;20615;-93
2022/09/14 07:23:55;;;;;;;8.45;1.15;;;16.20;99.90;;;;;;4882001;29;20067;-92
2022/09/14 07:26:23;;;;;;;13.55;1.90;;;16.30;99.90;;;;;;4881153;29;20108;-94
2022/09/14 07:28:53;;;;;;;11.85;1.55;;;16.30;99.90;;;;;;4918334;23;20173;-85
2022/09/14 07:31:27;;;;;;;10.23;1.75;;;16.40;99.90;;;;;;4931381;29;20149;-86
2022/09/14 07:33:54;;;;;;;7.20;0.98;;;16.50;99.90;;;;;;4916881;29;20047;-86
2022/09/14 07:36:21;;;;;;;5.78;1.20;;;16.60;99.90;;;;;;4916294;29;20062;-86
2022/09/14 07:38:47;;;;;;;8.02;1.17;;;16.70;99.90;;;;;;4931985;29;20114;-85
2022/09/14 07:41:13;;;;;;;6.55;1.23;;;16.80;99.90;;;;;;4932765;29;20146;-85
2022/09/14 07:43:39;;;;;;;12.75;1.42;;;16.80;99.90;;;;;;4932224;29;20043;-84
2022/09/14 07:46:05;;;;;;;11.63;1.20;;;16.90;99.90;;;;;;4933404;29;20047;-85
2022/09/14 07:48:33;;;;;;;8.70;1.15;;;16.90;99.90;;;;;;4932777;29;20051;-85
2022/09/14 07:51:05;;;;;;;14.38;1.20;;;16.90;99.90;;;;;;4932533;29;20047;-85
2022/09/14 07:53:34;;;;;;;9.48;1.33;;;17.00;99.90;;;;;;4932162;29;20043;-85
2022/09/14 07:56:01;;;;;;;9.75;0.98;;;16.90;99.90;;;;;;4932993;29;20043;-86
2022/09/14 07:58:28;;;;;;;10.40;1.52;;;17.10;99.90;;;;;;4931954;29;20047;-86
2022/09/14 08:00:59;;;;;;;9.13;1.00;;;17.20;99.90;;;;;;4932668;29;20058;-85
2022/09/14 08:06:00;;;;;;;12.57;1.55;;;17.30;99.90;;;;;;5015604;23;20083;-84
2022/09/14 08:08:29;;;;;;;8.68;1.25;;;17.30;99.90;;;;;;4927979;29;20056;-85
2022/09/14 08:10:58;;;;;;;8.70;1.23;;;17.40;99.90;;;;;;4913564;29;20055;-85
2022/09/14 08:13:23;;;;;;;10.45;1.42;;;17.50;99.90;;;;;;4928285;29;20050;-85
2022/09/14 08:15:50;;;;;;;10.57;1.10;;;17.50;99.90;;;;;;4929538;29;20345;-85
2022/09/14 08:18:15;;;;;;;12.52;1.27;;;17.50;99.90;;;;;;4928584;29;20055;-86
2022/09/14 08:20:41;;;;;;;11.73;1.20;;;17.50;99.90;;;;;;4929189;29;20111;-85
2022/09/14 08:23:07;;;;;;;5.25;0.77;;;17.50;99.90;;;;;;4912851;29;20450;-85
2022/09/14 08:25:32;;;;;;;12.05;1.30;;;17.50;99.90;;;;;;4928302;29;20055;-85
2022/09/14 08:27:58;;;;;;;6.40;0.90;;;17.50;99.90;;;;;;4928935;29;20122;-85
2022/09/14 08:30:24;;;;;;;6.75;1.00;;;17.50;99.90;;;;;;4928868;29;20054;-86
2022/09/14 08:32:49;;;;;;;9.07;1.13;;;17.50;99.90;;;;;;4928271;29;20044;-85
2022/09/14 08:35:15;;;;;;;8.63;1.30;;;17.60;99.90;;;;;;4928850;29;20052;-85
2022/09/14 08:37:41;;;;;;;6.47;0.90;;;17.60;99.90;;;;;;4928613;29;20047;-85
2022/09/14 08:40:10;;;;;;;11.13;1.25;;;17.60;99.90;;;;;;4932452;29;20488;-85
2022/09/14 08:42:37;;;;;;;10.55;1.02;;;17.70;99.90;;;;;;4932410;29;20052;-86
2022/09/14 08:45:06;;;;;;;6.65;1.08;;;18.00;99.90;;;;;;4932944;29;20107;-86
2022/09/14 08:47:37;;;;;;;7.03;1.08;;;18.10;99.90;;;;;;4931716;29;20032;-87
2022/09/14 08:50:11;;;;;;;9.93;0.90;;;18.20;99.90;;;;;;4932793;29;20142;-86
2022/09/14 08:52:39;;;;;;;16.35;1.52;;;18.20;99.90;;;;;;4932269;29;20574;-86
2022/09/14 08:55:30;;;;;;;10.50;1.13;;;18.30;99.90;;;;;;4916421;29;20143;-87
2022/09/14 08:58:06;;;;;;;7.88;1.02;;;18.40;99.90;;;;;;4931981;29;20052;-86
2022/09/14 09:00:41;;;;;;;9.25;1.02;;;18.50;99.90;;;;;;4931444;29;20076;-85
2022/09/14 09:03:20;;;;;;;8.90;1.20;;;18.60;99.90;;;;;;4913210;29;20051;-85
2022/09/14 09:06:22;;;;;;;12.35;1.10;;;18.60;99.90;;;;;;4897664;29;20048;-85
2022/09/14 09:09:17;;;;;;;7.97;1.17;;;18.90;99.90;;;;;;4896054;29;20056;-85
2022/09/14 09:11:47;;;;;;;11.07;1.20;;;19.10;99.90;;;;;;4897446;29;20051;-86
2022/09/14 09:14:26;;;;;;;7.68;0.90;;;19.40;99.90;;;;;;4913304;29;20048;-86
2022/09/14 09:16:55;;;;;;;8.18;0.90;;;19.50;99.90;;;;;;4913366;29;20112;-94
2022/09/14 09:19:49;;;;;;;8.02;1.25;;;19.50;99.90;;;;;;4916260;29;20161;-95
2022/09/14 09:22:19;;;;;;;8.55;0.95;;;19.40;99.90;;;;;;4914809;29;20048;-93
2022/09/14 09:24:51;;;;;;;7.50;1.10;;;19.30;99.90;;;;;;4916476;29;20090;-94
2022/09/14 09:27:16;;;;;;;7.70;1.02;;;19.20;99.90;;;;;;4916571;29;20051;-89
2022/09/14 09:29:43;;;;;;;7.15;0.73;;;19.10;99.90;;;;;;4916555;29;20051;-90
2022/09/14 09:32:19;;;;;;;7.10;1.17;;;19.00;99.90;;;;;;4916050;29;20051;-91
2022/09/14 09:34:57;;;;;;;6.85;0.98;;;18.90;99.90;;;;;;4915379;29;20052;-93
2022/09/14 09:37:23;;;;;;;8.75;0.90;;;18.80;99.90;;;;;;4921155;29;20047;-93
2022/09/14 09:39:50;;;;;;;7.95;1.10;;;18.90;99.90;;;;;;4933498;29;20051;-92
2022/09/14 09:42:23;;;;;;;8.43;1.10;;;18.90;99.90;;;;;;4933556;29;20467;-94
2022/09/14 09:44:58;;;;;;;6.22;1.23;;;18.80;99.90;;;;;;4933512;29;20050;-90
2022/09/14 09:47:36;;;;;;;10.95;1.45;;;18.80;99.90;;;;;;4933082;29;20119;-91
2022/09/14 09:50:16;;;;;;;8.00;0.85;;;18.80;99.90;;;;;;4932127;29;20487;-91
2022/09/14 09:52:49;;;;;;;11.60;1.27;;;18.70;99.90;;;;;;4933386;29;20079;-92
2022/09/14 09:55:21;;;;;;;5.63;0.65;;;18.80;99.90;;;;;;4917647;29;20110;-91
2022/09/14 09:58:21;;;;;;;8.90;1.08;;;18.90;99.90;;;;;;4932344;29;20039;-91
2022/09/14 10:01:00;;;;;;;10.50;1.02;;;18.90;99.90;;;;;;4917717;29;20174;-90
2022/09/14 10:03:30;;;;;;;10.23;1.20;;;19.00;99.90;;;;;;4933410;29;20055;-92
2022/09/14 10:06:14;;;;;;;8.65;1.10;;;19.00;99.90;;;;;;4931971;29;20056;-93
2022/09/14 10:08:46;;;;;;;9.27;1.40;;;19.10;99.90;;;;;;4933017;29;20056;-92
2022/09/14 10:11:29;;;;;;;7.63;0.82;;;19.10;99.90;;;;;;4932578;29;20190;-92
2022/09/14 10:13:55;;;;;;;6.75;1.33;;;19.20;99.90;;;;;;4917495;29;20131;-91
2022/09/14 10:16:40;;;;;;;7.60;1.10;;;19.30;99.90;;;;;;4933140;29;20043;-92
2022/09/14 10:19:24;;;;;;;9.50;1.20;;;19.40;99.90;;;;;;4932751;29;20070;-94
2022/09/14 10:22:03;;;;;;;8.32;1.42;;;19.40;99.90;;;;;;4932838;29;20090;-93
2022/09/14 10:24:30;;;;;;;4.72;0.90;;;19.50;99.90;;;;;;4917293;29;20044;-90
2022/09/14 10:26:56;;;;;;;7.80;1.00;;;19.50;99.90;;;;;;4932774;29;20107;-90
2022/09/14 10:29:41;;;;;;;10.23;1.65;;;19.50;99.90;;;;;;4916700;29;20048;-90
2022/09/14 10:32:21;;;;;;;8.13;1.00;;;19.50;99.90;;;;;;4917279;29;20067;-91
2022/09/14 10:34:46;;;;;;;6.05;0.90;;;19.40;99.90;;;;;;4917756;29;20091;-91
2022/09/14 10:37:30;;;;;;;9.77;1.13;;;19.40;99.90;;;;;;4918171;29;20102;-92
2022/09/14 10:40:15;;;;;;;8.38;1.02;;;19.40;99.90;;;;;;4917647;29;20060;-90
2022/09/14 10:42:58;;;;;;;4.40;0.73;;;19.40;99.90;;;;;;4918486;29;20105;-91
2022/09/14 10:45:30;;;;;;;7.13;1.30;;;19.40;99.90;;;;;;4918022;29;20074;-91
2022/09/14 10:48:14;;;;;;;8.95;1.13;;;19.40;99.90;;;;;;4917529;29;20058;-90
2022/09/14 10:50:40;;;;;;;8.32;0.93;;;19.40;99.90;;;;;;4918058;29;20048;-90
2022/09/14 10:53:18;;;;;;;8.45;1.10;;;19.50;99.90;;;;;;4917552;29;20062;-91
2022/09/14 10:56:00;;;;;;;7.18;0.80;;;19.50;99.90;;;;;;4918423;29;20472;-91
2022/09/14 10:58:52;;;;;;;8.60;1.10;;;19.40;99.90;;;;;;4917281;29;20515;-91
2022/09/14 11:01:19;;;;;;;10.30;1.05;;;19.50;99.90;;;;;;4909883;29;20044;-90
2022/09/14 11:04:09;;;;;;;6.32;1.10;;;19.40;99.90;;;;;;4898734;29;20055;-92
2022/09/14 11:06:50;;;;;;;6.82;0.90;;;19.40;99.90;;;;;;4913414;29;20160;-90
2022/09/14 11:09:29;;;;;;;7.57;1.00;;;19.40;99.90;;;;;;4898912;29;20048;-90
2022/09/14 11:11:59;;;;;;;11.43;1.42;;;19.40;99.90;;;;;;4913756;29;20054;-91
2022/09/14 11:14:48;;;;;;;4.03;0.70;;;19.50;99.90;;;;;;4896643;29;20578;-93
2022/09/14 11:17:25;;;;;;;7.00;0.98;;;19.50;99.90;;;;;;4913365;29;20047;-91
2022/09/14 11:20:16;;;;;;;5.10;1.08;;;19.60;99.90;;;;;;4897346;29;20044;-91
2022/09/14 11:23:33;;;;;;;11.82;1.20;;;19.80;99.90;;;;;;4911918;29;20078;-95
2022/09/14 11:26:54;;;;;;;8.43;1.80;;;19.90;99.90;;;;;;4849963;29;20057;-94
2022/09/14 11:33:15;;;;;;;6.53;0.90;;;20.10;99.90;;;;;;4964158;23;20080;-91
2022/09/14 11:36:00;;;;;;;8.68;1.25;;;20.20;99.90;;;;;;4930782;29;20055;-89
2022/09/14 11:38:29;;;;;;;13.25;1.25;;;20.30;99.90;;;;;;4914921;29;20087;-90
2022/09/14 11:41:48;;;;;;;4.90;0.95;;;20.40;99.90;;;;;;4915518;29;20142;-91
2022/09/14 11:47:11;;;;;;;9.50;1.20;;;20.30;99.90;;;;;;4955901;23;20523;-94
2022/09/14 11:50:00;;;;;;;6.50;0.98;;;20.30;99.90;;;;;;4919741;29;20047;-93
2022/09/14 11:52:28;;;;;;;8.10;1.15;;;20.20;99.90;;;;;;4901095;29;20052;-94
2022/09/14 11:54:55;;;;;;;7.00;1.88;;;20.40;99.90;;;;;;4931904;29;20051;-95
2022/09/14 11:57:28;;;;;;;5.65;1.00;;;20.50;99.90;;;;;;4931476;29;20179;-93
2022/09/14 11:59:56;;;;;;;6.38;1.00;;;20.60;99.90;;;;;;4931650;29;20194;-93
2022/09/14 12:02:21;;;;;;;10.48;0.90;;;20.60;99.90;;;;;;4933142;28;20139;-95
2022/09/14 12:05:03;;;;;;;8.50;1.13;;;20.70;99.90;;;;;;4932531;29;20119;-93
2022/09/14 12:07:38;;;;;;;10.00;1.10;;;20.80;99.90;;;;;;4931467;29;20052;-93
2022/09/14 12:10:13;;;;;;;6.57;1.02;;;20.90;99.90;;;;;;4931266;29;20488;-93
2022/09/14 12:12:50;;;;;;;10.00;0.88;;;20.80;99.90;;;;;;4930687;29;20138;-92
2022/09/14 12:15:32;;;;;;;8.35;0.80;;;20.70;99.90;;;;;;4933363;29;20048;-93
2022/09/14 12:18:05;;;;;;;10.60;1.60;;;20.40;99.90;;;;;;4931070;29;20044;-93
2022/09/14 12:20:42;;;;;;;11.52;1.13;;;20.30;99.90;;;;;;4932169;29;20078;-93
2022/09/14 12:23:40;;;;;;;11.23;1.45;;;20.30;99.90;;;;;;4901649;29;20064;-94
2022/09/14 12:26:27;;;;;;;9.52;1.30;;;20.30;99.90;;;;;;4935339;29;20040;-94
2022/09/14 12:28:56;;;;;;;8.80;1.48;;;20.40;99.90;;;;;;4936724;29;20151;-94
2022/09/14 12:31:43;;;;;;;7.22;1.05;;;20.40;99.90;;;;;;4918620;29;20058;-93
2022/09/14 12:34:18;;;;;;;8.80;1.00;;;20.40;99.90;;;;;;4918688;29;20497;-94
2022/09/14 12:36:44;;;;;;;10.48;1.40;;;20.50;99.90;;;;;;4918436;29;20048;-93
2022/09/14 12:39:26;;;;;;;8.20;1.30;;;20.40;99.90;;;;;;4918713;29;20106;-94
2022/09/14 12:41:52;;;;;;;3.10;0.65;;;20.40;99.90;;;;;;4934358;29;20071;-92
2022/09/14 12:44:36;;;;;;;6.00;0.90;;;20.40;99.90;;;;;;4918323;29;20485;-92
2022/09/14 12:47:34;;;;;;;10.00;0.95;;;20.40;99.90;;;;;;4934488;29;20378;-92
2022/09/14 12:50:11;;;;;;;8.73;1.00;;;20.50;99.90;;;;;;4932810;29;20496;-95
2022/09/14 12:52:43;;;;;;;8.68;1.10;;;20.50;99.90;;;;;;4934635;29;20046;-94
2022/09/14 12:55:26;;;;;;;7.95;1.15;;;20.40;99.90;;;;;;4933014;29;20079;-94
2022/09/14 12:58:24;;;;;;;8.68;1.10;;;20.50;99.90;;;;;;4935629;29;20044;-93
2022/09/14 13:01:27;;;;;;;6.63;1.02;;;20.50;99.90;;;;;;4933255;29;20058;-94
2022/09/14 13:03:55;;;;;;;4.60;0.80;;;20.40;99.90;;;;;;4935715;29;20138;-94
2022/09/14 13:06:25;;;;;;;10.38;0.90;;;20.40;99.90;;;;;;4936187;29;20044;-95
2022/09/14 13:08:56;;;;;;;11.63;1.50;;;20.30;99.90;;;;;;4935078;29;20046;-95
2022/09/14 13:11:30;;;;;;;5.05;0.80;;;20.10;99.90;;;;;;4935621;29;20129;-96
2022/09/14 13:13:58;;;;;;;7.00;0.80;;;20.00;99.90;;;;;;4938616;29;20043;-94
2022/09/14 13:16:33;;;;;;;5.47;0.93;;;19.90;99.90;;;;;;4931843;29;20052;-95
2022/09/14 13:19:05;;;;;;;4.88;0.60;;;19.70;99.90;;;;;;4933035;29;20070;-95
2022/09/14 13:21:31;;;;;;;5.43;1.08;;;19.60;99.90;;;;;;4932161;29;20497;-93
2022/09/14 13:23:56;;;;;;;6.55;1.00;;;19.60;99.90;;;;;;4931737;29;20056;-94
2022/09/14 13:26:26;;;;;;;9.43;1.23;;;19.50;99.90;;;;;;4937049;29;20043;-95
2022/09/14 13:28:54;;;;;;;6.97;1.15;;;19.40;99.90;;;;;;4935019;29;20067;-95